Terminal Aerodrome Forecast
Issued by NWS

Home | Current Version | Previous Version | Graphics & Text | Print | Product List | Glossary On
Versions: 1 2 3 4 5 6 7 8 9 10 11 12 13 14 15 16
000
FTUS43 KGRB 272337
TAFATW
TAF
KATW 272337Z 2800/2824 29007KT P6SM -SHRA SCT015 OVC050
      TEMPO 2800/2802 5SM -SHRA BR BKN015
     FM280300 31006KT P6SM VCSH SCT015 OVC050
      TEMPO 2806/2810 4SM BR BKN015
     FM281000 36006KT P6SM VCSH BKN015 OVC040
     FM281500 02011KT P6SM OVC020
     FM282200 03010G17KT P6SM BKN035 BKN080=

USA.gov is the U.S. government's official web portal to all federal, state and local government web resources and services.